Terminal Aerodrome Forecast
Issued by NWS

Home | Current Version | Previous Version | Text Only | Print | Product List | Glossary On
Versions: 1 2 3 4 5 6 7 8 9 10 11 12 13 14 15 16 17 18 19 20 21 22 23 24 25 26 27 28 29 30 31 32 33 34 35 36 37 38 39 40 41 42 43 44 45 46 47 48
000
FTUS43 KMKX 240207 AAA
TAFENW
TAF AMD
KENW 240207Z 2402/2424 08005KT P6SM VCSH SCT015 OVC035
      TEMPO 2402/2404 6SM -SHRA BKN015
     FM240400 06004KT P6SM VCSH SCT008 OVC012
     FM240600 05004KT P6SM VCSH OVC008
     FM241500 03009KT P6SM VCSH OVC008
     FM241700 02011KT P6SM VCSH OVC010
     FM241800 02012KT P6SM OVC010
     FM242000 01013G21KT P6SM OVC008=

USA.gov is the U.S. government's official web portal to all federal, state and local government web resources and services.